Elbe, Washington
Current Conditions -  °F | °C
As of 10:58 PM on Monday 20 Oct 2014 (Local Time) from KGRF Reporting Station
Light Rain Light Rain  
Wind Chill: 11°   Ceiling: 6000
Heat Index: 11°   Visibility: 10mi
Dew Point: 11°   Wind: 1mph
Humidity: 99%   Direction: 140°SE
Pressure: 29.81"   Gusts: NA
Location:  46.76°N, 122.2°W
Report Text: KGRF 210558Z AUTO 14001KT 10SM -RA BKN060 12/11 A2981 RMK AO2 SLP098 P0000 60004 T01150114 10164 20113 52013 $
Loading
Personal Weather Stations






























Interactive Weather Map
Tropical Storm Tracking
New forecast layout! Learn more

10-Day Weather Forecast

Advertisements
Track Severe Weather on mobile